Crown Of Scandinavia — OXRA6 — position and weather

sailwx.info

Track history (hours):
 
Tides and Currents Weather Stations Pressure Air Temp Water Temp Dewpoint Dewpoint Depression Visibility Wind Speed Wind Dir Waves Ship Positions

Crown Of Scandinavia

Last reported at 2017-May-26 10:58 UTC. Time now 2017-May-26 16:48 UTC.
Position N 55°42' E 012°36'.

Length 171 m; draft 6.3 m.

Type: Ship. MMSI: 219592000.

Date/timePositionNaut miles runAvg speedWind from/ knotsBaromVisibWave heightAir tempDewpointWater temp
2017-May-26 10:58N 55°42' E 012°36'0 0.0
2017-May-26 10:28N 55°42' E 012°36'0 0.0
2017-May-26 09:58N 55°42' E 012°36'0 0.0
2017-May-26 09:28N 55°42' E 012°36'0 0.0
2017-May-26 08:58N 55°42' E 012°36'0 0.0
2017-May-26 08:28N 55°42' E 012°36'0 0.0
2017-May-26 07:58N 55°42' E 012°36'0 1.0
2017-May-26 07:31N 55°42' E 012°36'612.9
2017-May-26 07:01N 55°48' E 012°42'815.1
2017-May-26 06:31N 55°55' E 012°39'815.1
2017-May-26 06:01N 56°03' E 012°39'815.5
2017-May-26 05:31N 56°09' E 012°30'714.9
2017-May-26 05:01N 56°16' E 012°24'5816.0
2017-May-26 01:22N 57°11' E 011°54'616.1
2017-May-26 01:00N 57°16' E 011°48'816.2
2017-May-26 00:30N 57°22' E 011°38'817.0
2017-May-26 00:00N 57°29' E 011°28'816.3
2017-May-25 23:31N 57°36' E 011°21'816.4
2017-May-25 23:00N 57°43' E 011°12'917.1
2017-May-25 22:30N 57°51' E 011°06'916.7
2017-May-25 21:59N 57°59' E 011°00'816.4
2017-May-25 21:31N 58°06' E 010°55'816.5
2017-May-25 21:01N 58°13' E 010°49'816.8
2017-May-25 20:31N 58°21' E 010°43'916.9
2017-May-25 20:00N 58°30' E 010°38'817.0
2017-May-25 19:30N 58°38' E 010°37'816.8
2017-May-25 19:00N 58°46' E 010°36'816.9
2017-May-25 18:31N 58°55' E 010°37'817.0
2017-May-25 18:01N 59°03' E 010°38'816.7
2017-May-25 17:31N 59°11' E 010°38'917.1
2017-May-25 17:01N 59°20' E 010°35'917.0
2017-May-25 16:31N 59°28' E 010°34'714.5
2017-May-25 16:01N 59°35' E 010°38'713.8
2017-May-25 15:31N 59°42' E 010°35'815.1
2017-May-25 15:01N 59°50' E 010°35'6 6.5
2017-May-25 14:00N 59°54' E 010°45'0 0.0
2017-May-25 13:30N 59°54' E 010°45'0 0.0
2017-May-25 13:00N 59°54' E 010°45'0 0.0
2017-May-25 12:30N 59°54' E 010°45'0 0.0
2017-May-25 12:00N 59°54' E 010°45'0 0.0
2017-May-25 11:30N 59°54' E 010°45'0 0.0
2017-May-25 11:00N 59°54' E 010°45'0 0.0
2017-May-25 10:30N 59°54' E 010°45'0 0.0
2017-May-25 10:00N 59°54' E 010°45'0 0.0
2017-May-25 09:30N 59°54' E 010°45'0 0.0
2017-May-25 09:00N 59°54' E 010°45'0 0.0
2017-May-25 08:30N 59°54' E 010°45'0 0.0
2017-May-25 08:00N 59°54' E 010°45'1 2.6
2017-May-25 07:30N 59°54' E 010°42'815.9
2017-May-25 07:00N 59°47' E 010°35'714.2
2017-May-25 06:30N 59°40' E 010°37'713.9
2017-May-25 06:00N 59°33' E 010°37'816.4
2017-May-25 05:30N 59°25' E 010°34'816.7
2017-May-25 05:00N 59°17' E 010°37'816.5
2017-May-25 04:30N 59°09' E 010°40'816.3
2017-May-25 04:00N 59°01' E 010°41'816.6
2017-May-25 03:30N 58°52' E 010°43'816.6
2017-May-25 03:00N 58°44' E 010°45'916.9
2017-May-25 02:30N 58°36' E 010°46'817.0
2017-May-25 02:00N 58°27' E 010°48'816.9
2017-May-25 01:30N 58°19' E 010°50'816.6
2017-May-25 01:00N 58°10' E 010°52'816.6
2017-May-25 00:30N 58°03' E 010°57'816.5
2017-May-25 00:00N 57°55' E 011°03'816.3
2017-May-24 23:30N 57°47' E 011°08'816.2
2017-May-24 23:00N 57°40' E 011°13'916.7
2017-May-24 22:30N 57°32' E 011°21'816.4
2017-May-24 22:00N 57°25' E 011°29'816.5
2017-May-24 21:30N 57°18' E 011°34'917.0
2017-May-24 20:58N 57°09' E 011°39'1016.7
2017-May-24 20:22N 56°60' E 011°47'816.2
2017-May-24 19:52N 56°53' E 011°54'616.0
2017-May-24 19:30N 56°48' E 011°59'816.1
2017-May-24 19:00N 56°40' E 012°05'1216.2
2017-May-24 18:15N 56°29' E 012°14'1716.2
2017-May-24 17:13N 56°14' E 012°26'416.7
2017-May-24 17:00N 56°11' E 012°29'816.2
2017-May-24 16:30N 56°04' E 012°38'714.9
2017-May-24 16:00N 55°57' E 012°43'815.0
2017-May-24 15:30N 55°50' E 012°44'714.1
2017-May-24 15:00N 55°44' E 012°39'2 4.1
2017-May-24 14:28N 55°42' E 012°36'0 0.0
2017-May-24 13:28N 55°42' E 012°36'0 0.0
2017-May-24 12:58N 55°42' E 012°36'0 0.0
2017-May-24 12:28N 55°42' E 012°36'0 0.0
2017-May-24 11:58N 55°42' E 012°36'0 0.0
2017-May-24 11:28N 55°42' E 012°36'0 0.0
2017-May-24 10:58N 55°42' E 012°36'0 0.0
2017-May-24 10:28N 55°42' E 012°36'0 0.0
2017-May-24 09:58N 55°42' E 012°36'0 0.0
2017-May-24 09:28N 55°42' E 012°36'0 0.0
2017-May-24 08:58N 55°42' E 012°36'0 0.0
2017-May-24 08:28N 55°42' E 012°36'0 0.0
2017-May-24 07:58N 55°42' E 012°36'1 1.3
2017-May-24 07:30N 55°42' E 012°37'714.6
2017-May-24 07:01N 55°49' E 012°42'816.0
2017-May-24 06:30N 55°57' E 012°40'815.3
2017-May-24 06:00N 56°04' E 012°37'815.4
2017-May-24 05:30N 56°10' E 012°28'6616.5
2017-May-24 01:30N 57°13' E 011°52'917.1
2017-May-24 01:00N 57°21' E 011°44'917.1
2017-May-24 00:30N 57°29' E 011°38'918.0
2017-May-24 00:00N 57°37' E 011°31'917.7
2017-May-23 23:30N 57°45' E 011°25'917.0
2017-May-23 23:00N 57°53' E 011°19'816.6
2017-May-23 22:30N 58°01' E 011°13'815.8
2017-May-23 22:00N 58°08' E 011°07'816.5
2017-May-23 21:31N 58°16' E 011°03'816.2
2017-May-23 21:00N 58°23' E 010°58'815.5
2017-May-23 20:31N 58°31' E 010°54'815.7
2017-May-23 20:00N 58°38' E 010°49'816.0
2017-May-23 19:30N 58°46' E 010°44'816.3
2017-May-23 19:00N 58°54' E 010°43'816.5
2017-May-23 18:30N 59°02' E 010°41'816.8
2017-May-23 18:00N 59°10' E 010°38'816.6
2017-May-23 17:30N 59°19' E 010°36'816.4
2017-May-23 17:00N 59°27' E 010°33'815.3
2017-May-23 16:30N 59°34' E 010°38'612.7
2017-May-23 16:00N 59°40' E 010°37'713.8
2017-May-23 15:30N 59°47' E 010°34'815.1
2017-May-23 15:00N 59°54' E 010°42'2 3.0
2017-May-23 14:29N 59°54' E 010°45'0 0.0
2017-May-23 13:29N 59°54' E 010°45'0 0.0
2017-May-23 12:59N 59°54' E 010°45'0 0.0
2017-May-23 12:29N 59°54' E 010°45'0 0.0
2017-May-23 11:59N 59°54' E 010°45'0 0.0
2017-May-23 11:29N 59°54' E 010°45'0 0.0
2017-May-23 10:59N 59°54' E 010°45'0 0.0
2017-May-23 10:29N 59°54' E 010°45'0 0.0
2017-May-23 09:59N 59°54' E 010°45'0 0.0
2017-May-23 09:29N 59°54' E 010°45'0 0.0
2017-May-23 08:59N 59°54' E 010°45'0 0.0
2017-May-23 08:29N 59°54' E 010°45'0 0.0
2017-May-23 07:59N 59°54' E 010°45'0 0.5
2017-May-23 07:30N 59°54' E 010°44'713.7
2017-May-23 07:00N 59°49' E 010°35'714.7
2017-May-23 06:31N 59°42' E 010°36'713.7
2017-May-23 06:00N 59°35' E 010°38'612.6
2017-May-23 05:31N 59°29' E 010°35'815.2
2017-May-23 05:01N 59°21' E 010°35'815.2
2017-May-23 04:31N 59°14' E 010°38'815.4
2017-May-23 04:01N 59°06' E 010°41'815.7
2017-May-23 03:31N 58°58' E 010°42'815.8
2017-May-23 03:01N 58°51' E 010°44'816.3
2017-May-23 02:30N 58°42' E 010°46'917.5
2017-May-23 02:01N 58°34' E 010°49'917.3
2017-May-23 01:30N 58°25' E 010°54'816.7
2017-May-23 01:00N 58°18' E 010°59'1016.5
2017-May-23 00:26N 58°09' E 011°07'716.7
2017-May-23 00:00N 58°02' E 011°11'816.7
2017-May-22 23:30N 57°54' E 011°16'816.0
2017-May-22 23:00N 57°47' E 011°20'816.2
2017-May-22 22:30N 57°39' E 011°24'816.5
2017-May-22 22:00N 57°31' E 011°27'816.4
2017-May-22 21:30N 57°23' E 011°32'816.7
2017-May-22 21:00N 57°15' E 011°36'917.1
2017-May-22 20:29N 57°06' E 011°41'1217.0
2017-May-22 19:46N 56°55' E 011°51'1816.4
2017-May-22 18:41N 56°40' E 012°06'1016.4
2017-May-22 18:06N 56°31' E 012°13'1916.3
2017-May-22 16:57N 56°14' E 012°27'716.6
2017-May-22 16:30N 56°07' E 012°33'815.6
2017-May-22 16:00N 56°01' E 012°41'815.3
2017-May-22 15:31N 55°53' E 012°44'714.6
2017-May-22 15:01N 55°46' E 012°42'5 5.3
2017-May-22 14:00N 55°42' E 012°36'0 0.0
2017-May-22 13:30N 55°42' E 012°36'0 0.0
2017-May-22 13:00N 55°42' E 012°36'0 0.0
2017-May-22 12:30N 55°42' E 012°36'0 0.0
2017-May-22 12:00N 55°42' E 012°36'0 0.0
2017-May-22 11:30N 55°42' E 012°36'0 0.0
2017-May-22 11:00N 55°42' E 012°36'0 0.0
2017-May-22 10:30N 55°42' E 012°36'0 0.0
2017-May-22 10:00N 55°42' E 012°36'0 0.0
2017-May-22 09:30N 55°42' E 012°36'0 0.0
2017-May-22 09:00N 55°42' E 012°36'0 0.0
2017-May-22 08:30N 55°42' E 012°36'0 0.0
2017-May-22 08:00N 55°42' E 012°36'0 1.0
2017-May-22 07:31N 55°42' E 012°36'612.0
2017-May-22 07:00N 55°48' E 012°42'714.8
2017-May-22 06:31N 55°55' E 012°39'815.9
2017-May-22 06:00N 56°03' E 012°39'815.9
2017-May-22 05:30N 56°09' E 012°30'815.2
2017-May-22 05:00N 56°16' E 012°25'815.6
2017-May-22 04:30N 56°23' E 012°21'915.7
2017-May-22 03:55N 56°32' E 012°16'1715.8
2017-May-22 02:50N 56°49' E 012°07'516.3
2017-May-22 02:30N 56°54' E 012°07'2216.5
2017-May-22 01:10N 57°14' E 011°52'317.2
2017-May-22 00:59N 57°17' E 011°48'817.1
2017-May-22 00:30N 57°23' E 011°39'917.5
2017-May-22 00:01N 57°31' E 011°31'918.0
2017-May-21 23:30N 57°39' E 011°22'918.0
2017-May-21 23:00N 57°46' E 011°13'918.0
2017-May-21 22:30N 57°54' E 011°04'816.9
2017-May-21 22:00N 58°02' E 010°58'816.9
2017-May-21 21:30N 58°10' E 010°53'917.2
2017-May-21 21:00N 58°18' E 010°47'918.0
2017-May-21 20:30N 58°26' E 010°41'917.2
2017-May-21 20:00N 58°34' E 010°37'817.0
2017-May-21 19:30N 58°43' E 010°36'917.1
2017-May-21 19:00N 58°51' E 010°36'816.7
2017-May-21 18:30N 58°60' E 010°39'816.4
2017-May-21 18:00N 59°08' E 010°39'816.1
2017-May-21 17:30N 59°16' E 010°37'816.0
2017-May-21 17:00N 59°24' E 010°33'715.0
2017-May-21 16:30N 59°31' E 010°35'713.2
2017-May-21 16:01N 59°38' E 010°38'713.5
2017-May-21 15:31N 59°44' E 010°33'714.9
2017-May-21 15:00N 59°51' E 010°36'510.1
2017-May-21 14:30N 59°54' E 010°45'0 0.1
2017-May-21 13:28N 59°54' E 010°45'0 0.0
2017-May-21 12:58N 59°54' E 010°45'0 0.0
2017-May-21 12:28N 59°54' E 010°45'0 0.0
2017-May-21 11:58N 59°54' E 010°45'0 0.0
2017-May-21 11:28N 59°54' E 010°45'0 0.0
2017-May-21 10:58N 59°54' E 010°45'0 0.0
2017-May-21 10:28N 59°54' E 010°45'0 0.0
2017-May-21 09:58N 59°54' E 010°45'0 0.0
2017-May-21 09:28N 59°54' E 010°45'0 0.0
2017-May-21 08:58N 59°54' E 010°45'0 0.0
2017-May-21 08:28N 59°54' E 010°45'0 0.0
2017-May-21 07:49N 59°54' E 010°45'0 0.7
2017-May-21 07:30N 59°54' E 010°45'612.0
2017-May-21 07:01N 59°50' E 010°36'715.0
2017-May-21 06:31N 59°43' E 010°36'714.4
2017-May-21 06:00N 59°35' E 010°38'815.0
2017-May-21 05:30N 59°28' E 010°34'816.3
2017-May-21 05:00N 59°20' E 010°36'816.5
2017-May-21 04:30N 59°12' E 010°39'816.6
2017-May-21 04:00N 59°04' E 010°41'816.2
2017-May-21 03:30N 58°56' E 010°42'715.0
2017-May-21 03:00N 58°48' E 010°44'815.1
2017-May-21 02:30N 58°41' E 010°45'815.2
2017-May-21 02:00N 58°33' E 010°50'816.0
2017-May-21 01:30N 58°26' E 010°54'816.4
2017-May-21 01:00N 58°18' E 010°59'816.2
2017-May-21 00:30N 58°10' E 011°04'816.6
2017-May-21 00:00N 58°02' E 011°08'917.0
2017-May-20 23:30N 57°54' E 011°13'817.2
2017-May-20 23:00N 57°46' E 011°18'917.1
2017-May-20 22:31N 57°38' E 011°23'817.0
2017-May-20 22:01N 57°30' E 011°28'816.7
2017-May-20 21:30N 57°22' E 011°32'917.6
2017-May-20 20:59N 57°13' E 011°37'917.8
2017-May-20 20:30N 57°05' E 011°42'2217.3
2017-May-20 19:14N 56°46' E 012°01'817.1
2017-May-20 18:45N 56°38' E 012°07'416.7
2017-May-20 18:30N 56°34' E 012°11'916.5
2017-May-20 17:56N 56°26' E 012°18'716.7
2017-May-20 17:29N 56°19' E 012°22'816.8
2017-May-20 17:00N 56°11' E 012°28'815.9
2017-May-20 16:30N 56°05' E 012°37'815.0
2017-May-20 16:00N 55°58' E 012°42'815.8
2017-May-20 15:30N 55°50' E 012°44'714.5
2017-May-20 15:00N 55°44' E 012°39'2 4.3
2017-May-20 14:28N 55°42' E 012°36'0 0.0
2017-May-20 13:28N 55°42' E 012°36'0 0.0
2017-May-20 12:58N 55°42' E 012°36'0 0.0
2017-May-20 12:28N 55°42' E 012°36'0 0.0
2017-May-20 11:58N 55°42' E 012°36'0 0.0
2017-May-20 11:28N 55°42' E 012°36'0 0.0
2017-May-20 10:58N 55°42' E 012°36'0 0.0
2017-May-20 10:28N 55°42' E 012°36'0 0.0
2017-May-20 09:58N 55°42' E 012°36'0 0.0
2017-May-20 09:28N 55°42' E 012°36'0 0.0
2017-May-20 08:55N 55°42' E 012°36'0 0.0
2017-May-20 08:28N 55°42' E 012°36'0 0.0
2017-May-20 08:01N 55°42' E 012°36'1 2.4
2017-May-20 07:30N 55°43' E 012°38'612.3
2017-May-20 07:00N 55°48' E 012°42'815.7
2017-May-20 06:31N 55°56' E 012°43'816.7
2017-May-20 06:01N 56°04' E 012°37'816.2
2017-May-20 05:31N 56°10' E 012°28'815.7
2017-May-20 05:00N 56°18' E 012°24'4316.2
2017-May-20 02:19N 56°59' E 012°01'1616.2
2017-May-20 01:19N 57°15' E 011°51'516.4
2017-May-20 01:00N 57°19' E 011°46'816.4
2017-May-20 00:31N 57°26' E 011°39'816.8
2017-May-20 00:01N 57°33' E 011°31'917.2
2017-May-19 23:31N 57°41' E 011°22'917.0
2017-May-19 23:00N 57°48' E 011°14'917.0
2017-May-19 22:30N 57°55' E 011°05'917.1
2017-May-19 22:00N 58°03' E 010°58'816.9
2017-May-19 21:30N 58°11' E 010°54'816.3
2017-May-19 20:59N 58°20' E 010°55'815.8
2017-May-19 20:30N 58°27' E 010°54'815.6
2017-May-19 20:01N 58°35' E 010°51'816.4
2017-May-19 19:30N 58°42' E 010°45'816.8
2017-May-19 19:00N 58°51' E 010°42'917.2
2017-May-19 18:30N 58°59' E 010°41'917.1
2017-May-19 18:01N 59°08' E 010°39'816.6
2017-May-19 17:30N 59°16' E 010°36'815.9
2017-May-19 17:00N 59°24' E 010°33'815.5
2017-May-19 16:31N 59°31' E 010°35'713.2
2017-May-19 16:01N 59°38' E 010°37'612.8
2017-May-19 15:30N 59°44' E 010°33'815.6
2017-May-19 15:00N 59°52' E 010°37'5 4.7
2017-May-19 14:00N 59°54' E 010°45'0 0.0
2017-May-19 13:30N 59°54' E 010°45'0 0.0
2017-May-19 13:00N 59°54' E 010°45'0 0.0
2017-May-19 12:30N 59°54' E 010°45'0 0.0
2017-May-19 12:00N 59°54' E 010°45'0 0.0
2017-May-19 11:30N 59°54' E 010°45'0 0.0
2017-May-19 11:00N 59°54' E 010°45'0 0.0
2017-May-19 10:30N 59°54' E 010°45'0 0.0
2017-May-19 10:00N 59°54' E 010°45'0 0.0
2017-May-19 09:30N 59°54' E 010°45'0 0.0
2017-May-19 09:00N 59°54' E 010°45'0 0.0
2017-May-19 08:30N 59°54' E 010°45'0 0.0
2017-May-19 08:00N 59°54' E 010°45'0 0.9
2017-May-19 07:30N 59°54' E 010°44'613.1
2017-May-19 07:00N 59°49' E 010°35'714.9
2017-May-19 06:30N 59°42' E 010°36'713.8
2017-May-19 06:00N 59°35' E 010°38'714.9
2017-May-19 05:30N 59°28' E 010°34'816.2
2017-May-19 05:00N 59°20' E 010°36'816.6
2017-May-19 04:30N 59°12' E 010°40'816.4
2017-May-19 04:00N 59°03' E 010°41'816.0
2017-May-19 03:30N 58°56' E 010°42'815.9
2017-May-19 03:00N 58°48' E 010°45'816.0
2017-May-19 02:30N 58°40' E 010°48'815.9
2017-May-19 02:00N 58°32' E 010°51'816.5
2017-May-19 01:30N 58°24' E 010°54'816.5
2017-May-19 01:00N 58°16' E 010°60'917.1
2017-May-19 00:30N 58°08' E 011°05'918.1
2017-May-19 00:00N 57°60' E 011°11'916.8
2017-May-18 23:29N 57°51' E 011°17'816.6
2017-May-18 23:01N 57°44' E 011°22'816.4
2017-May-18 22:30N 57°36' E 011°25'816.3
2017-May-18 22:01N 57°28' E 011°30'816.4
2017-May-18 21:30N 57°20' E 011°34'816.9
2017-May-18 21:01N 57°12' E 011°38'816.4
2017-May-18 20:30N 57°05' E 011°43'1016.4
2017-May-18 19:55N 56°56' E 011°51'816.2
2017-May-18 19:25N 56°49' E 011°57'3816.1
2017-May-18 17:02N 56°14' E 012°26'116.1
2017-May-18 17:00N 56°13' E 012°27'816.5
2017-May-18 16:30N 56°06' E 012°34'816.2
2017-May-18 16:00N 55°59' E 012°41'816.1
2017-May-18 15:30N 55°51' E 012°45'815.5
2017-May-18 15:00N 55°44' E 012°40'3 5.9
2017-May-18 14:30N 55°42' E 012°36'0 0.0
2017-May-18 13:30N 55°42' E 012°36'0 0.0
2017-May-18 13:00N 55°42' E 012°36'0 0.0
2017-May-18 12:30N 55°42' E 012°36'0 0.0
2017-May-18 12:00N 55°42' E 012°36'0 0.0
2017-May-18 11:30N 55°42' E 012°36'0 0.0
2017-May-18 11:00N 55°42' E 012°36'0 0.0
2017-May-18 10:30N 55°42' E 012°36'0 0.0
2017-May-18 10:00N 55°42' E 012°36'0 0.0
2017-May-18 09:30N 55°42' E 012°36'0 0.0
2017-May-18 09:00N 55°42' E 012°36'0 0.0
2017-May-18 08:30N 55°42' E 012°36'0 0.0
2017-May-18 08:00N 55°42' E 012°36'0 0.8
2017-May-18 07:30N 55°42' E 012°36'611.7
2017-May-18 07:00N 55°47' E 012°42'715.0
2017-May-18 06:30N 55°55' E 012°39'816.4
2017-May-18 06:01N 56°03' E 012°39'816.7
2017-May-18 05:31N 56°09' E 012°29'917.0
2017-May-18 05:00N 56°17' E 012°24'917.5
2017-May-18 04:29N 56°26' E 012°18'1217.7
2017-May-18 03:47N 56°38' E 012°11'517.5
2017-May-18 03:31N 56°42' E 012°09'917.6
2017-May-18 03:00N 56°51' E 012°05'1917.5
2017-May-18 01:55N 57°09' E 011°56'717.5
2017-May-18 01:30N 57°16' E 011°50'917.5
2017-May-18 00:59N 57°23' E 011°40'816.4
2017-May-18 00:31N 57°30' E 011°32'816.8
2017-May-18 00:01N 57°37' E 011°24'816.6
2017-May-17 23:30N 57°44' E 011°18'916.4
2017-May-17 22:59N 57°53' E 011°12'815.9
2017-May-17 22:30N 57°59' E 011°05'816.8
2017-May-17 22:00N 58°06' E 010°55'816.6
2017-May-17 21:30N 58°13' E 010°48'817.0
2017-May-17 21:00N 58°21' E 010°40'816.2
2017-May-17 20:29N 58°28' E 010°36'815.9
2017-May-17 20:01N 58°36' E 010°35'816.8
2017-May-17 19:30N 58°45' E 010°34'817.0
2017-May-17 19:01N 58°53' E 010°35'816.8
2017-May-17 18:31N 59°01' E 010°37'816.7
2017-May-17 18:00N 59°10' E 010°38'816.3
2017-May-17 17:31N 59°18' E 010°36'816.0
2017-May-17 17:01N 59°26' E 010°33'816.0
2017-May-17 16:31N 59°33' E 010°37'612.5
2017-May-17 16:00N 59°40' E 010°37'713.5
2017-May-17 15:30N 59°46' E 010°33'714.3
2017-May-17 15:00N 59°53' E 010°39'3 6.6
2017-May-17 14:30N 59°54' E 010°45'0 0.0
2017-May-17 13:27N 59°54' E 010°45'0 0.0
2017-May-17 13:00N 59°54' E 010°45'0 0.0
2017-May-17 12:30N 59°54' E 010°45'0 0.0
2017-May-17 12:00N 59°54' E 010°45'0 0.0
2017-May-17 11:30N 59°54' E 010°45'0 0.0
2017-May-17 11:00N 59°54' E 010°45'0 0.0
2017-May-17 10:30N 59°54' E 010°45'0 0.0
2017-May-17 10:00N 59°54' E 010°45'0 0.0
2017-May-17 09:30N 59°54' E 010°45'0 0.0
2017-May-17 09:00N 59°54' E 010°45'0 0.0
2017-May-17 07:48N 59°54' E 010°45'0 0.7
2017-May-17 07:30N 59°54' E 010°45'611.9
2017-May-17 07:00N 59°50' E 010°36'714.8
2017-May-17 06:30N 59°43' E 010°35'612.9
2017-May-17 06:00N 59°36' E 010°38'713.7
2017-May-17 05:30N 59°30' E 010°35'816.2
2017-May-17 05:00N 59°22' E 010°35'816.9
2017-May-17 04:30N 59°13' E 010°38'816.4
2017-May-17 04:00N 59°05' E 010°40'816.1
2017-May-17 03:30N 58°57' E 010°42'816.3
2017-May-17 03:00N 58°49' E 010°43'816.0
2017-May-17 02:30N 58°41' E 010°45'815.8
2017-May-17 02:00N 58°33' E 010°50'815.7
2017-May-17 01:30N 58°26' E 010°55'815.8
2017-May-17 01:00N 58°19' E 011°01'816.6
2017-May-17 00:30N 58°11' E 011°05'917.3
2017-May-16 23:58N 58°02' E 011°11'817.3
2017-May-16 23:30N 57°55' E 011°17'816.7
2017-May-16 23:01N 57°47' E 011°22'816.1
2017-May-16 22:31N 57°39' E 011°28'815.9
2017-May-16 22:00N 57°32' E 011°33'816.2
2017-May-16 21:30N 57°25' E 011°40'816.4
2017-May-16 21:00N 57°18' E 011°47'916.3
2017-May-16 20:27N 57°09' E 011°54'5816.5
2017-May-16 16:55N 56°14' E 012°26'717.5
2017-May-16 16:30N 56°07' E 012°32'917.6
2017-May-16 16:00N 56°00' E 012°41'816.7
2017-May-16 15:30N 55°52' E 012°45'815.8
2017-May-16 15:00N 55°45' E 012°41'4 7.3
2017-May-16 14:31N 55°42' E 012°36'0 0.0
2017-May-16 13:30N 55°42' E 012°36'0 0.0
2017-May-16 13:00N 55°42' E 012°36'0 0.0
2017-May-16 12:30N 55°42' E 012°36'0 0.0
2017-May-16 12:00N 55°42' E 012°36'0 0.0
2017-May-16 11:30N 55°42' E 012°36'0 0.0
2017-May-16 11:00N 55°42' E 012°36'  
Track history (hours):
 
Tides and Currents Weather Stations Pressure Air Temp Water Temp Dewpoint Dewpoint Depression Visibility Wind Speed Wind Dir Waves Ship Positions

Crown Of Scandinavia

Last reported at 2017-May-26 10:58 UTC. Time now 2017-May-26 16:48 UTC.
Position N 55°42' E 012°36'.

Length 171 m; draft 6.3 m.

Type: Ship. MMSI: 219592000.

Date/timePositionNaut miles runAvg speedWind from/ knotsBaromVisibWave heightAir tempDewpointWater temp
2017-May-26 10:58N 55°42' E 012°36'0 0.0
2017-May-26 10:28N 55°42' E 012°36'0 0.0
2017-May-26 09:58N 55°42' E 012°36'0 0.0
2017-May-26 09:28N 55°42' E 012°36'0 0.0
2017-May-26 08:58N 55°42' E 012°36'0 0.0
2017-May-26 08:28N 55°42' E 012°36'0 0.0
2017-May-26 07:58N 55°42' E 012°36'0 1.0
2017-May-26 07:31N 55°42' E 012°36'612.9
2017-May-26 07:01N 55°48' E 012°42'815.1
2017-May-26 06:31N 55°55' E 012°39'815.1
2017-May-26 06:01N 56°03' E 012°39'815.5
2017-May-26 05:31N 56°09' E 012°30'714.9
2017-May-26 05:01N 56°16' E 012°24'5816.0
2017-May-26 01:22N 57°11' E 011°54'616.1
2017-May-26 01:00N 57°16' E 011°48'816.2
2017-May-26 00:30N 57°22' E 011°38'817.0
2017-May-26 00:00N 57°29' E 011°28'816.3
2017-May-25 23:31N 57°36' E 011°21'816.4
2017-May-25 23:00N 57°43' E 011°12'917.1
2017-May-25 22:30N 57°51' E 011°06'916.7
2017-May-25 21:59N 57°59' E 011°00'816.4
2017-May-25 21:31N 58°06' E 010°55'816.5
2017-May-25 21:01N 58°13' E 010°49'816.8
2017-May-25 20:31N 58°21' E 010°43'916.9
2017-May-25 20:00N 58°30' E 010°38'817.0
2017-May-25 19:30N 58°38' E 010°37'816.8
2017-May-25 19:00N 58°46' E 010°36'816.9
2017-May-25 18:31N 58°55' E 010°37'817.0
2017-May-25 18:01N 59°03' E 010°38'816.7
2017-May-25 17:31N 59°11' E 010°38'917.1
2017-May-25 17:01N 59°20' E 010°35'917.0
2017-May-25 16:31N 59°28' E 010°34'714.5
2017-May-25 16:01N 59°35' E 010°38'713.8
2017-May-25 15:31N 59°42' E 010°35'815.1
2017-May-25 15:01N 59°50' E 010°35'6 6.5
2017-May-25 14:00N 59°54' E 010°45'0 0.0
2017-May-25 13:30N 59°54' E 010°45'0 0.0
2017-May-25 13:00N 59°54' E 010°45'0 0.0
2017-May-25 12:30N 59°54' E 010°45'0 0.0
2017-May-25 12:00N 59°54' E 010°45'0 0.0
2017-May-25 11:30N 59°54' E 010°45'0 0.0
2017-May-25 11:00N 59°54' E 010°45'0 0.0
2017-May-25 10:30N 59°54' E 010°45'0 0.0
2017-May-25 10:00N 59°54' E 010°45'0 0.0
2017-May-25 09:30N 59°54' E 010°45'0 0.0
2017-May-25 09:00N 59°54' E 010°45'0 0.0
2017-May-25 08:30N 59°54' E 010°45'0 0.0
2017-May-25 08:00N 59°54' E 010°45'1 2.6
2017-May-25 07:30N 59°54' E 010°42'815.9
2017-May-25 07:00N 59°47' E 010°35'714.2
2017-May-25 06:30N 59°40' E 010°37'713.9
2017-May-25 06:00N 59°33' E 010°37'816.4
2017-May-25 05:30N 59°25' E 010°34'816.7
2017-May-25 05:00N 59°17' E 010°37'816.5
2017-May-25 04:30N 59°09' E 010°40'816.3
2017-May-25 04:00N 59°01' E 010°41'816.6
2017-May-25 03:30N 58°52' E 010°43'816.6
2017-May-25 03:00N 58°44' E 010°45'916.9
2017-May-25 02:30N 58°36' E 010°46'817.0
2017-May-25 02:00N 58°27' E 010°48'816.9
2017-May-25 01:30N 58°19' E 010°50'816.6
2017-May-25 01:00N 58°10' E 010°52'816.6
2017-May-25 00:30N 58°03' E 010°57'816.5
2017-May-25 00:00N 57°55' E 011°03'816.3
2017-May-24 23:30N 57°47' E 011°08'816.2
2017-May-24 23:00N 57°40' E 011°13'916.7
2017-May-24 22:30N 57°32' E 011°21'816.4
2017-May-24 22:00N 57°25' E 011°29'816.5
2017-May-24 21:30N 57°18' E 011°34'917.0
2017-May-24 20:58N 57°09' E 011°39'1016.7
2017-May-24 20:22N 56°60' E 011°47'816.2
2017-May-24 19:52N 56°53' E 011°54'616.0
2017-May-24 19:30N 56°48' E 011°59'816.1
2017-May-24 19:00N 56°40' E 012°05'1216.2
2017-May-24 18:15N 56°29' E 012°14'1716.2
2017-May-24 17:13N 56°14' E 012°26'416.7
2017-May-24 17:00N 56°11' E 012°29'816.2
2017-May-24 16:30N 56°04' E 012°38'714.9
2017-May-24 16:00N 55°57' E 012°43'815.0
2017-May-24 15:30N 55°50' E 012°44'714.1
2017-May-24 15:00N 55°44' E 012°39'2 4.1
2017-May-24 14:28N 55°42' E 012°36'0 0.0
2017-May-24 13:28N 55°42' E 012°36'0 0.0
2017-May-24 12:58N 55°42' E 012°36'0 0.0
2017-May-24 12:28N 55°42' E 012°36'0 0.0
2017-May-24 11:58N 55°42' E 012°36'0 0.0
2017-May-24 11:28N 55°42' E 012°36'0 0.0
2017-May-24 10:58N 55°42' E 012°36'0 0.0
2017-May-24 10:28N 55°42' E 012°36'0 0.0
2017-May-24 09:58N 55°42' E 012°36'0 0.0
2017-May-24 09:28N 55°42' E 012°36'0 0.0
2017-May-24 08:58N 55°42' E 012°36'0 0.0
2017-May-24 08:28N 55°42' E 012°36'0 0.0
2017-May-24 07:58N 55°42' E 012°36'1 1.3
2017-May-24 07:30N 55°42' E 012°37'714.6
2017-May-24 07:01N 55°49' E 012°42'816.0
2017-May-24 06:30N 55°57' E 012°40'815.3
2017-May-24 06:00N 56°04' E 012°37'815.4
2017-May-24 05:30N 56°10' E 012°28'6616.5
2017-May-24 01:30N 57°13' E 011°52'917.1
2017-May-24 01:00N 57°21' E 011°44'917.1
2017-May-24 00:30N 57°29' E 011°38'918.0
2017-May-24 00:00N 57°37' E 011°31'917.7
2017-May-23 23:30N 57°45' E 011°25'917.0
2017-May-23 23:00N 57°53' E 011°19'816.6
2017-May-23 22:30N 58°01' E 011°13'815.8
2017-May-23 22:00N 58°08' E 011°07'816.5
2017-May-23 21:31N 58°16' E 011°03'816.2
2017-May-23 21:00N 58°23' E 010°58'815.5
2017-May-23 20:31N 58°31' E 010°54'815.7
2017-May-23 20:00N 58°38' E 010°49'816.0
2017-May-23 19:30N 58°46' E 010°44'816.3
2017-May-23 19:00N 58°54' E 010°43'816.5
2017-May-23 18:30N 59°02' E 010°41'816.8
2017-May-23 18:00N 59°10' E 010°38'816.6
2017-May-23 17:30N 59°19' E 010°36'816.4
2017-May-23 17:00N 59°27' E 010°33'815.3
2017-May-23 16:30N 59°34' E 010°38'612.7
2017-May-23 16:00N 59°40' E 010°37'713.8
2017-May-23 15:30N 59°47' E 010°34'815.1
2017-May-23 15:00N 59°54' E 010°42'2 3.0
2017-May-23 14:29N 59°54' E 010°45'0 0.0
2017-May-23 13:29N 59°54' E 010°45'0 0.0
2017-May-23 12:59N 59°54' E 010°45'0 0.0
2017-May-23 12:29N 59°54' E 010°45'0 0.0
2017-May-23 11:59N 59°54' E 010°45'0 0.0
2017-May-23 11:29N 59°54' E 010°45'0 0.0
2017-May-23 10:59N 59°54' E 010°45'0 0.0
2017-May-23 10:29N 59°54' E 010°45'0 0.0
2017-May-23 09:59N 59°54' E 010°45'0 0.0
2017-May-23 09:29N 59°54' E 010°45'0 0.0
2017-May-23 08:59N 59°54' E 010°45'0 0.0
2017-May-23 08:29N 59°54' E 010°45'0 0.0
2017-May-23 07:59N 59°54' E 010°45'0 0.5
2017-May-23 07:30N 59°54' E 010°44'713.7
2017-May-23 07:00N 59°49' E 010°35'714.7
2017-May-23 06:31N 59°42' E 010°36'713.7
2017-May-23 06:00N 59°35' E 010°38'612.6
2017-May-23 05:31N 59°29' E 010°35'815.2
2017-May-23 05:01N 59°21' E 010°35'815.2
2017-May-23 04:31N 59°14' E 010°38'815.4
2017-May-23 04:01N 59°06' E 010°41'815.7
2017-May-23 03:31N 58°58' E 010°42'815.8
2017-May-23 03:01N 58°51' E 010°44'816.3
2017-May-23 02:30N 58°42' E 010°46'917.5
2017-May-23 02:01N 58°34' E 010°49'917.3
2017-May-23 01:30N 58°25' E 010°54'816.7
2017-May-23 01:00N 58°18' E 010°59'1016.5
2017-May-23 00:26N 58°09' E 011°07'716.7
2017-May-23 00:00N 58°02' E 011°11'816.7
2017-May-22 23:30N 57°54' E 011°16'816.0
2017-May-22 23:00N 57°47' E 011°20'816.2
2017-May-22 22:30N 57°39' E 011°24'816.5
2017-May-22 22:00N 57°31' E 011°27'816.4
2017-May-22 21:30N 57°23' E 011°32'816.7
2017-May-22 21:00N 57°15' E 011°36'917.1
2017-May-22 20:29N 57°06' E 011°41'1217.0
2017-May-22 19:46N 56°55' E 011°51'1816.4
2017-May-22 18:41N 56°40' E 012°06'1016.4
2017-May-22 18:06N 56°31' E 012°13'1916.3
2017-May-22 16:57N 56°14' E 012°27'716.6
2017-May-22 16:30N 56°07' E 012°33'815.6
2017-May-22 16:00N 56°01' E 012°41'815.3
2017-May-22 15:31N 55°53' E 012°44'714.6
2017-May-22 15:01N 55°46' E 012°42'5 5.3
2017-May-22 14:00N 55°42' E 012°36'0 0.0
2017-May-22 13:30N 55°42' E 012°36'0 0.0
2017-May-22 13:00N 55°42' E 012°36'0 0.0
2017-May-22 12:30N 55°42' E 012°36'0 0.0
2017-May-22 12:00N 55°42' E 012°36'0 0.0
2017-May-22 11:30N 55°42' E 012°36'0 0.0
2017-May-22 11:00N 55°42' E 012°36'0 0.0
2017-May-22 10:30N 55°42' E 012°36'0 0.0
2017-May-22 10:00N 55°42' E 012°36'0 0.0
2017-May-22 09:30N 55°42' E 012°36'0 0.0
2017-May-22 09:00N 55°42' E 012°36'0 0.0
2017-May-22 08:30N 55°42' E 012°36'0 0.0
2017-May-22 08:00N 55°42' E 012°36'0 1.0
2017-May-22 07:31N 55°42' E 012°36'612.0
2017-May-22 07:00N 55°48' E 012°42'714.8
2017-May-22 06:31N 55°55' E 012°39'815.9
2017-May-22 06:00N 56°03' E 012°39'815.9
2017-May-22 05:30N 56°09' E 012°30'815.2
2017-May-22 05:00N 56°16' E 012°25'815.6
2017-May-22 04:30N 56°23' E 012°21'915.7
2017-May-22 03:55N 56°32' E 012°16'1715.8
2017-May-22 02:50N 56°49' E 012°07'516.3
2017-May-22 02:30N 56°54' E 012°07'2216.5
2017-May-22 01:10N 57°14' E 011°52'317.2
2017-May-22 00:59N 57°17' E 011°48'817.1
2017-May-22 00:30N 57°23' E 011°39'917.5
2017-May-22 00:01N 57°31' E 011°31'918.0
2017-May-21 23:30N 57°39' E 011°22'918.0
2017-May-21 23:00N 57°46' E 011°13'918.0
2017-May-21 22:30N 57°54' E 011°04'816.9
2017-May-21 22:00N 58°02' E 010°58'816.9
2017-May-21 21:30N 58°10' E 010°53'917.2
2017-May-21 21:00N 58°18' E 010°47'918.0
2017-May-21 20:30N 58°26' E 010°41'917.2
2017-May-21 20:00N 58°34' E 010°37'817.0
2017-May-21 19:30N 58°43' E 010°36'917.1
2017-May-21 19:00N 58°51' E 010°36'816.7
2017-May-21 18:30N 58°60' E 010°39'816.4
2017-May-21 18:00N 59°08' E 010°39'816.1
2017-May-21 17:30N 59°16' E 010°37'816.0
2017-May-21 17:00N 59°24' E 010°33'715.0
2017-May-21 16:30N 59°31' E 010°35'713.2
2017-May-21 16:01N 59°38' E 010°38'713.5
2017-May-21 15:31N 59°44' E 010°33'714.9
2017-May-21 15:00N 59°51' E 010°36'510.1
2017-May-21 14:30N 59°54' E 010°45'0 0.1
2017-May-21 13:28N 59°54' E 010°45'0 0.0
2017-May-21 12:58N 59°54' E 010°45'0 0.0
2017-May-21 12:28N 59°54' E 010°45'0 0.0
2017-May-21 11:58N 59°54' E 010°45'0 0.0
2017-May-21 11:28N 59°54' E 010°45'0 0.0
2017-May-21 10:58N 59°54' E 010°45'0 0.0
2017-May-21 10:28N 59°54' E 010°45'0 0.0
2017-May-21 09:58N 59°54' E 010°45'0 0.0
2017-May-21 09:28N 59°54' E 010°45'0 0.0
2017-May-21 08:58N 59°54' E 010°45'0 0.0
2017-May-21 08:28N 59°54' E 010°45'0 0.0
2017-May-21 07:49N 59°54' E 010°45'0 0.7
2017-May-21 07:30N 59°54' E 010°45'612.0
2017-May-21 07:01N 59°50' E 010°36'715.0
2017-May-21 06:31N 59°43' E 010°36'714.4
2017-May-21 06:00N 59°35' E 010°38'815.0
2017-May-21 05:30N 59°28' E 010°34'816.3
2017-May-21 05:00N 59°20' E 010°36'816.5
2017-May-21 04:30N 59°12' E 010°39'816.6
2017-May-21 04:00N 59°04' E 010°41'816.2
2017-May-21 03:30N 58°56' E 010°42'715.0
2017-May-21 03:00N 58°48' E 010°44'815.1
2017-May-21 02:30N 58°41' E 010°45'815.2
2017-May-21 02:00N 58°33' E 010°50'816.0
2017-May-21 01:30N 58°26' E 010°54'816.4
2017-May-21 01:00N 58°18' E 010°59'816.2
2017-May-21 00:30N 58°10' E 011°04'816.6
2017-May-21 00:00N 58°02' E 011°08'917.0
2017-May-20 23:30N 57°54' E 011°13'817.2
2017-May-20 23:00N 57°46' E 011°18'917.1
2017-May-20 22:31N 57°38' E 011°23'817.0
2017-May-20 22:01N 57°30' E 011°28'816.7
2017-May-20 21:30N 57°22' E 011°32'917.6
2017-May-20 20:59N 57°13' E 011°37'917.8
2017-May-20 20:30N 57°05' E 011°42'2217.3
2017-May-20 19:14N 56°46' E 012°01'817.1
2017-May-20 18:45N 56°38' E 012°07'416.7
2017-May-20 18:30N 56°34' E 012°11'916.5
2017-May-20 17:56N 56°26' E 012°18'716.7
2017-May-20 17:29N 56°19' E 012°22'816.8
2017-May-20 17:00N 56°11' E 012°28'815.9
2017-May-20 16:30N 56°05' E 012°37'815.0
2017-May-20 16:00N 55°58' E 012°42'815.8
2017-May-20 15:30N 55°50' E 012°44'714.5
2017-May-20 15:00N 55°44' E 012°39'2 4.3
2017-May-20 14:28N 55°42' E 012°36'0 0.0
2017-May-20 13:28N 55°42' E 012°36'0 0.0
2017-May-20 12:58N 55°42' E 012°36'0 0.0
2017-May-20 12:28N 55°42' E 012°36'0 0.0
2017-May-20 11:58N 55°42' E 012°36'0 0.0
2017-May-20 11:28N 55°42' E 012°36'0 0.0
2017-May-20 10:58N 55°42' E 012°36'0 0.0
2017-May-20 10:28N 55°42' E 012°36'0 0.0
2017-May-20 09:58N 55°42' E 012°36'0 0.0
2017-May-20 09:28N 55°42' E 012°36'0 0.0
2017-May-20 08:55N 55°42' E 012°36'0 0.0
2017-May-20 08:28N 55°42' E 012°36'0 0.0
2017-May-20 08:01N 55°42' E 012°36'1 2.4
2017-May-20 07:30N 55°43' E 012°38'612.3
2017-May-20 07:00N 55°48' E 012°42'815.7
2017-May-20 06:31N 55°56' E 012°43'816.7
2017-May-20 06:01N 56°04' E 012°37'816.2
2017-May-20 05:31N 56°10' E 012°28'815.7
2017-May-20 05:00N 56°18' E 012°24'4316.2
2017-May-20 02:19N 56°59' E 012°01'1616.2
2017-May-20 01:19N 57°15' E 011°51'516.4
2017-May-20 01:00N 57°19' E 011°46'816.4
2017-May-20 00:31N 57°26' E 011°39'816.8
2017-May-20 00:01N 57°33' E 011°31'917.2
2017-May-19 23:31N 57°41' E 011°22'917.0
2017-May-19 23:00N 57°48' E 011°14'917.0
2017-May-19 22:30N 57°55' E 011°05'917.1
2017-May-19 22:00N 58°03' E 010°58'816.9
2017-May-19 21:30N 58°11' E 010°54'816.3
2017-May-19 20:59N 58°20' E 010°55'815.8
2017-May-19 20:30N 58°27' E 010°54'815.6
2017-May-19 20:01N 58°35' E 010°51'816.4
2017-May-19 19:30N 58°42' E 010°45'816.8
2017-May-19 19:00N 58°51' E 010°42'917.2
2017-May-19 18:30N 58°59' E 010°41'917.1
2017-May-19 18:01N 59°08' E 010°39'816.6
2017-May-19 17:30N 59°16' E 010°36'815.9
2017-May-19 17:00N 59°24' E 010°33'815.5
2017-May-19 16:31N 59°31' E 010°35'713.2
2017-May-19 16:01N 59°38' E 010°37'612.8
2017-May-19 15:30N 59°44' E 010°33'815.6
2017-May-19 15:00N 59°52' E 010°37'5 4.7
2017-May-19 14:00N 59°54' E 010°45'0 0.0
2017-May-19 13:30N 59°54' E 010°45'0 0.0
2017-May-19 13:00N 59°54' E 010°45'0 0.0
2017-May-19 12:30N 59°54' E 010°45'0 0.0
2017-May-19 12:00N 59°54' E 010°45'0 0.0
2017-May-19 11:30N 59°54' E 010°45'0 0.0
2017-May-19 11:00N 59°54' E 010°45'0 0.0
2017-May-19 10:30N 59°54' E 010°45'0 0.0
2017-May-19 10:00N 59°54' E 010°45'0 0.0
2017-May-19 09:30N 59°54' E 010°45'0 0.0
2017-May-19 09:00N 59°54' E 010°45'0 0.0
2017-May-19 08:30N 59°54' E 010°45'0 0.0
2017-May-19 08:00N 59°54' E 010°45'0 0.9
2017-May-19 07:30N 59°54' E 010°44'613.1
2017-May-19 07:00N 59°49' E 010°35'714.9
2017-May-19 06:30N 59°42' E 010°36'713.8
2017-May-19 06:00N 59°35' E 010°38'714.9
2017-May-19 05:30N 59°28' E 010°34'816.2
2017-May-19 05:00N 59°20' E 010°36'816.6
2017-May-19 04:30N 59°12' E 010°40'816.4
2017-May-19 04:00N 59°03' E 010°41'816.0
2017-May-19 03:30N 58°56' E 010°42'815.9
2017-May-19 03:00N 58°48' E 010°45'816.0
2017-May-19 02:30N 58°40' E 010°48'815.9
2017-May-19 02:00N 58°32' E 010°51'816.5
2017-May-19 01:30N 58°24' E 010°54'816.5
2017-May-19 01:00N 58°16' E 010°60'917.1
2017-May-19 00:30N 58°08' E 011°05'918.1
2017-May-19 00:00N 57°60' E 011°11'916.8
2017-May-18 23:29N 57°51' E 011°17'816.6
2017-May-18 23:01N 57°44' E 011°22'816.4
2017-May-18 22:30N 57°36' E 011°25'816.3
2017-May-18 22:01N 57°28' E 011°30'816.4
2017-May-18 21:30N 57°20' E 011°34'816.9
2017-May-18 21:01N 57°12' E 011°38'816.4
2017-May-18 20:30N 57°05' E 011°43'1016.4
2017-May-18 19:55N 56°56' E 011°51'816.2
2017-May-18 19:25N 56°49' E 011°57'3816.1
2017-May-18 17:02N 56°14' E 012°26'116.1
2017-May-18 17:00N 56°13' E 012°27'816.5
2017-May-18 16:30N 56°06' E 012°34'816.2
2017-May-18 16:00N 55°59' E 012°41'816.1
2017-May-18 15:30N 55°51' E 012°45'815.5
2017-May-18 15:00N 55°44' E 012°40'3 5.9
2017-May-18 14:30N 55°42' E 012°36'0 0.0
2017-May-18 13:30N 55°42' E 012°36'0 0.0
2017-May-18 13:00N 55°42' E 012°36'0 0.0
2017-May-18 12:30N 55°42' E 012°36'0 0.0
2017-May-18 12:00N 55°42' E 012°36'0 0.0
2017-May-18 11:30N 55°42' E 012°36'0 0.0
2017-May-18 11:00N 55°42' E 012°36'0 0.0
2017-May-18 10:30N 55°42' E 012°36'0 0.0
2017-May-18 10:00N 55°42' E 012°36'0 0.0
2017-May-18 09:30N 55°42' E 012°36'0 0.0
2017-May-18 09:00N 55°42' E 012°36'0 0.0
2017-May-18 08:30N 55°42' E 012°36'0 0.0
2017-May-18 08:00N 55°42' E 012°36'0 0.8
2017-May-18 07:30N 55°42' E 012°36'611.7
2017-May-18 07:00N 55°47' E 012°42'715.0
2017-May-18 06:30N 55°55' E 012°39'816.4
2017-May-18 06:01N 56°03' E 012°39'816.7
2017-May-18 05:31N 56°09' E 012°29'917.0
2017-May-18 05:00N 56°17' E 012°24'917.5
2017-May-18 04:29N 56°26' E 012°18'1217.7
2017-May-18 03:47N 56°38' E 012°11'517.5
2017-May-18 03:31N 56°42' E 012°09'917.6
2017-May-18 03:00N 56°51' E 012°05'1917.5
2017-May-18 01:55N 57°09' E 011°56'717.5
2017-May-18 01:30N 57°16' E 011°50'917.5
2017-May-18 00:59N 57°23' E 011°40'816.4
2017-May-18 00:31N 57°30' E 011°32'816.8
2017-May-18 00:01N 57°37' E 011°24'816.6
2017-May-17 23:30N 57°44' E 011°18'916.4
2017-May-17 22:59N 57°53' E 011°12'815.9
2017-May-17 22:30N 57°59' E 011°05'816.8
2017-May-17 22:00N 58°06' E 010°55'816.6
2017-May-17 21:30N 58°13' E 010°48'817.0
2017-May-17 21:00N 58°21' E 010°40'816.2
2017-May-17 20:29N 58°28' E 010°36'815.9
2017-May-17 20:01N 58°36' E 010°35'816.8
2017-May-17 19:30N 58°45' E 010°34'817.0
2017-May-17 19:01N 58°53' E 010°35'816.8
2017-May-17 18:31N 59°01' E 010°37'816.7
2017-May-17 18:00N 59°10' E 010°38'816.3
2017-May-17 17:31N 59°18' E 010°36'816.0
2017-May-17 17:01N 59°26' E 010°33'816.0
2017-May-17 16:31N 59°33' E 010°37'612.5
2017-May-17 16:00N 59°40' E 010°37'713.5
2017-May-17 15:30N 59°46' E 010°33'714.3
2017-May-17 15:00N 59°53' E 010°39'3 6.6
2017-May-17 14:30N 59°54' E 010°45'0 0.0
2017-May-17 13:27N 59°54' E 010°45'0 0.0
2017-May-17 13:00N 59°54' E 010°45'0 0.0
2017-May-17 12:30N 59°54' E 010°45'0 0.0
2017-May-17 12:00N 59°54' E 010°45'0 0.0
2017-May-17 11:30N 59°54' E 010°45'0 0.0
2017-May-17 11:00N 59°54' E 010°45'0 0.0
2017-May-17 10:30N 59°54' E 010°45'0 0.0
2017-May-17 10:00N 59°54' E 010°45'0 0.0
2017-May-17 09:30N 59°54' E 010°45'0 0.0
2017-May-17 09:00N 59°54' E 010°45'0 0.0
2017-May-17 07:48N 59°54' E 010°45'0 0.7
2017-May-17 07:30N 59°54' E 010°45'611.9
2017-May-17 07:00N 59°50' E 010°36'714.8
2017-May-17 06:30N 59°43' E 010°35'612.9
2017-May-17 06:00N 59°36' E 010°38'713.7
2017-May-17 05:30N 59°30' E 010°35'816.2
2017-May-17 05:00N 59°22' E 010°35'816.9
2017-May-17 04:30N 59°13' E 010°38'816.4
2017-May-17 04:00N 59°05' E 010°40'816.1
2017-May-17 03:30N 58°57' E 010°42'816.3
2017-May-17 03:00N 58°49' E 010°43'816.0
2017-May-17 02:30N 58°41' E 010°45'815.8
2017-May-17 02:00N 58°33' E 010°50'815.7
2017-May-17 01:30N 58°26' E 010°55'815.8
2017-May-17 01:00N 58°19' E 011°01'816.6
2017-May-17 00:30N 58°11' E 011°05'917.3
2017-May-16 23:58N 58°02' E 011°11'817.3
2017-May-16 23:30N 57°55' E 011°17'816.7
2017-May-16 23:01N 57°47' E 011°22'816.1
2017-May-16 22:31N 57°39' E 011°28'815.9
2017-May-16 22:00N 57°32' E 011°33'816.2
2017-May-16 21:30N 57°25' E 011°40'816.4
2017-May-16 21:00N 57°18' E 011°47'916.3
2017-May-16 20:27N 57°09' E 011°54'5816.5
2017-May-16 16:55N 56°14' E 012°26'717.5
2017-May-16 16:30N 56°07' E 012°32'917.6
2017-May-16 16:00N 56°00' E 012°41'816.7
2017-May-16 15:30N 55°52' E 012°45'815.8
2017-May-16 15:00N 55°45' E 012°41'4 7.3
2017-May-16 14:31N 55°42' E 012°36'0 0.0
2017-May-16 13:30N 55°42' E 012°36'0 0.0
2017-May-16 13:00N 55°42' E 012°36'0 0.0
2017-May-16 12:30N 55°42' E 012°36'0 0.0
2017-May-16 12:00N 55°42' E 012°36'0 0.0
2017-May-16 11:30N 55°42' E 012°36'0 0.0
2017-May-16 11:00N 55°42' E 012°36'  

Dump ship's entire track history